Time;durP1;ratioP1;P1;durP2;ratioP2;P2;SDS_P1;SDS_P2;PMS_P1;PMS_P2;Temp;Humidity;BMP_temperature;BMP_pressure;BME280_temperature;BME280_humidity;BME280_pressure;Samples;Min_cycle;Max_cycle;Signal;HPM_P1;HPM_P2
2023/10/16 00:00:49;;;;;;;0.10;0.10;;;;;;;;;;4918489;29;20370;-85
2023/10/16 00:03:17;;;;;;;0.20;0.20;;;;;;;;;;4918285;29;20079;-86
2023/10/16 00:05:49;;;;;;;0.10;0.10;;;;;;;;;;4917942;29;20055;-86
2023/10/16 00:08:18;;;;;;;0.10;0.10;;;;;;;;;;4918223;29;20498;-86
2023/10/16 00:11:01;;;;;;;0.10;0.10;;;;;;;;;;4902903;29;20397;-86
2023/10/16 00:13:27;;;;;;;;;;;;;;;;;;4903356;29;20497;-86
2023/10/16 00:16:02;;;;;;;0.10;0.10;;;;;;;;;;4918280;29;19918;-86
2023/10/16 00:18:33;;;;;;;0.10;0.10;;;;;;;;;;4935310;29;20047;-85
2023/10/16 00:20:59;;;;;;;0.10;0.10;;;;;;;;;;4903019;29;20052;-86
2023/10/16 00:23:25;;;;;;;0.10;0.10;;;;;;;;;;4902293;29;20040;-86
2023/10/16 00:25:51;;;;;;;0.10;0.10;;;;;;;;;;4902467;29;20449;-86
2023/10/16 00:28:23;;;;;;;0.20;0.20;;;;;;;;;;4917850;29;20047;-86
2023/10/16 00:30:49;;;;;;;0.10;0.10;;;;;;;;;;4902401;29;20571;-86
2023/10/16 00:33:16;;;;;;;0.10;0.10;;;;;;;;;;4902241;29;20044;-86
2023/10/16 00:35:43;;;;;;;0.10;0.10;;;;;;;;;;4918105;29;20066;-86
2023/10/16 00:38:13;;;;;;;0.10;0.10;;;;;;;;;;4917742;29;20047;-86
2023/10/16 00:40:40;;;;;;;0.10;0.10;;;;;;;;;;4918021;29;20392;-86
2023/10/16 00:43:06;;;;;;;0.10;0.10;;;;;;;;;;4917712;29;20122;-86
2023/10/16 00:45:35;;;;;;;0.10;0.10;;;;;;;;;;4902019;29;20058;-86
2023/10/16 00:48:01;;;;;;;0.10;0.10;;;;;;;;;;4934738;29;20059;-85
2023/10/16 00:50:27;;;;;;;0.10;0.10;;;;;;;;;;4902140;29;20043;-85
2023/10/16 00:52:54;;;;;;;0.10;0.10;;;;;;;;;;4902076;29;20186;-85
2023/10/16 00:55:20;;;;;;;0.10;0.10;;;;;;;;;;4902002;29;20055;-85
2023/10/16 00:57:46;;;;;;;0.10;0.10;;;;;;;;;;4902038;29;20056;-85
2023/10/16 01:00:12;;;;;;;0.10;0.10;;;;;;;;;;4901911;29;20051;-85
2023/10/16 01:02:41;;;;;;;0.10;0.10;;;;;;;;;;4917628;29;20055;-85
2023/10/16 01:05:08;;;;;;;0.10;0.10;;;;;;;;;;4917329;29;20055;-85
2023/10/16 01:07:36;;;;;;;0.10;0.10;;;;;;;;;;4917481;29;20048;-85
2023/10/16 01:10:10;;;;;;;0.10;0.10;;;;;;;;;;4901877;29;20169;-86
2023/10/16 01:12:36;;;;;;;0.10;0.10;;;;;;;;;;4934436;29;20052;-86
2023/10/16 01:15:04;;;;;;;0.10;0.10;;;;;;;;;;4901916;29;20397;-86
2023/10/16 01:17:31;;;;;;;0.10;0.10;;;;;;;;;;4917415;29;20111;-86
2023/10/16 01:19:57;;;;;;;0.10;0.10;;;;;;;;;;4917490;29;20076;-86
2023/10/16 01:22:29;;;;;;;0.10;0.10;;;;;;;;;;4902045;29;20405;-85
2023/10/16 01:24:55;;;;;;;0.10;0.10;;;;;;;;;;4934368;29;20058;-85
2023/10/16 01:27:29;;;;;;;0.10;0.10;;;;;;;;;;4917249;29;20043;-86
2023/10/16 01:30:01;;;;;;;0.10;0.10;;;;;;;;;;4917475;29;20043;-86
2023/10/16 01:32:27;;;;;;;0.10;0.10;;;;;;;;;;4902497;29;20541;-85
2023/10/16 01:34:55;;;;;;;0.10;0.10;;;;;;;;;;4901644;29;20050;-86
2023/10/16 01:37:21;;;;;;;0.10;0.10;;;;;;;;;;4902046;29;20073;-85
2023/10/16 01:39:53;;;;;;;0.15;0.15;;;;;;;;;;4901843;29;20493;-85
2023/10/16 01:42:19;;;;;;;0.10;0.10;;;;;;;;;;4904078;29;20115;-85
2023/10/16 01:44:46;;;;;;;0.10;0.10;;;;;;;;;;4905393;29;20154;-85
2023/10/16 01:47:15;;;;;;;0.10;0.10;;;;;;;;;;4920702;29;20086;-85
2023/10/16 01:49:45;;;;;;;0.10;0.10;;;;;;;;;;4920835;29;20393;-84
2023/10/16 01:52:11;;;;;;;0.10;0.10;;;;;;;;;;4904777;29;20044;-85
2023/10/16 01:54:47;;;;;;;0.10;0.10;;;;;;;;;;4904884;29;20503;-85
2023/10/16 01:57:13;;;;;;;0.10;0.10;;;;;;;;;;4920508;29;20056;-85
2023/10/16 01:59:47;;;;;;;0.10;0.10;;;;;;;;;;4904987;29;20073;-84
2023/10/16 02:02:13;;;;;;;0.10;0.10;;;;;;;;;;4920487;29;20047;-84
2023/10/16 02:04:40;;;;;;;0.10;0.10;;;;;;;;;;4919990;29;20143;-85
2023/10/16 02:07:09;;;;;;;0.10;0.10;;;;;;;;;;4904697;29;20520;-85
2023/10/16 02:09:36;;;;;;;0.10;0.10;;;;;;;;;;4921066;29;20130;-85
2023/10/16 02:12:05;;;;;;;0.20;0.20;;;;;;;;;;4920246;29;20517;-85
2023/10/16 02:14:32;;;;;;;0.10;0.10;;;;;;;;;;4920569;29;20055;-85
2023/10/16 02:16:58;;;;;;;0.10;0.10;;;;;;;;;;4920313;29;20401;-84
2023/10/16 02:19:25;;;;;;;0.10;0.10;;;;;;;;;;4904371;29;20048;-84
2023/10/16 02:21:53;;;;;;;0.10;0.10;;;;;;;;;;4920190;29;20127;-85
2023/10/16 02:24:19;;;;;;;0.10;0.10;;;;;;;;;;4904940;29;20051;-85
2023/10/16 02:26:55;;;;;;;0.10;0.10;;;;;;;;;;4920185;29;20071;-84
2023/10/16 02:29:22;;;;;;;0.10;0.10;;;;;;;;;;4904445;29;20051;-84
2023/10/16 02:31:50;;;;;;;0.10;0.10;;;;;;;;;;4904297;29;20042;-85
2023/10/16 02:34:22;;;;;;;0.10;0.10;;;;;;;;;;4919758;29;20155;-85
2023/10/16 02:36:49;;;;;;;0.10;0.10;;;;;;;;;;4904215;29;20094;-85
2023/10/16 02:39:35;;;;;;;0.10;0.10;;;;;;;;;;4904366;29;20510;-85
2023/10/16 02:42:01;;;;;;;0.10;0.10;;;;;;;;;;4903945;29;20048;-86
2023/10/16 02:44:27;;;;;;;0.10;0.10;;;;;;;;;;4904003;29;20429;-85
2023/10/16 02:46:55;;;;;;;0.10;0.10;;;;;;;;;;4936918;29;20122;-86
2023/10/16 02:49:22;;;;;;;0.10;0.10;;;;;;;;;;4919971;29;20074;-85
2023/10/16 02:51:48;;;;;;;0.10;0.10;;;;;;;;;;4920135;29;20458;-85
2023/10/16 02:54:14;;;;;;;0.10;0.10;;;;;;;;;;4918420;29;20481;-85
2023/10/16 02:56:43;;;;;;;0.10;0.10;;;;;;;;;;4919508;29;20047;-85
2023/10/16 02:59:11;;;;;;;0.10;0.10;;;;;;;;;;4903625;29;20097;-85
2023/10/16 03:01:38;;;;;;;0.10;0.10;;;;;;;;;;4919339;29;20118;-85
2023/10/16 03:04:05;;;;;;;0.10;0.10;;;;;;;;;;4903702;29;20052;-85
2023/10/16 03:06:39;;;;;;;0.10;0.10;;;;;;;;;;4919108;29;20107;-86
2023/10/16 03:11:56;;;;;;;0.10;0.10;;;;;;;;;;4919288;29;20043;-85
2023/10/16 03:14:22;;;;;;;0.10;0.10;;;;;;;;;;4919236;29;20044;-85
2023/10/16 03:16:48;;;;;;;0.10;0.10;;;;;;;;;;4903394;29;20226;-85
2023/10/16 03:19:16;;;;;;;0.10;0.10;;;;;;;;;;4903476;29;20203;-85
2023/10/16 03:21:45;;;;;;;0.10;0.10;;;;;;;;;;4918908;29;20122;-85
2023/10/16 03:24:12;;;;;;;0.10;0.10;;;;;;;;;;4918834;29;20105;-85
2023/10/16 03:26:42;;;;;;;0.10;0.10;;;;;;;;;;4919077;29;20461;-85
2023/10/16 03:29:08;;;;;;;0.10;0.10;;;;;;;;;;4935986;29;20047;-85
2023/10/16 03:31:36;;;;;;;0.10;0.10;;;;;;;;;;4918831;29;20050;-85
2023/10/16 03:34:02;;;;;;;0.10;0.10;;;;;;;;;;4902945;29;20036;-85
2023/10/16 03:36:31;;;;;;;0.10;0.10;;;;;;;;;;4903294;29;20450;-85
2023/10/16 03:39:03;;;;;;;0.10;0.10;;;;;;;;;;4935708;29;20401;-85
2023/10/16 03:41:32;;;;;;;0.10;0.10;;;;;;;;;;4904032;29;20122;-85
2023/10/16 03:44:07;;;;;;;0.10;0.10;;;;;;;;;;4918533;29;20047;-85
2023/10/16 03:46:33;;;;;;;0.10;0.10;;;;;;;;;;4902928;29;20401;-85
2023/10/16 03:49:00;;;;;;;0.10;0.10;;;;;;;;;;4918526;29;20501;-85
2023/10/16 03:51:26;;;;;;;0.10;0.10;;;;;;;;;;4918603;29;20165;-85
2023/10/16 03:53:52;;;;;;;0.10;0.10;;;;;;;;;;4902776;29;20493;-85
2023/10/16 03:56:19;;;;;;;0.10;0.10;;;;;;;;;;4918320;29;20040;-85
2023/10/16 03:58:45;;;;;;;0.10;0.10;;;;;;;;;;4902754;29;20509;-85
2023/10/16 04:01:11;;;;;;;0.10;0.10;;;;;;;;;;4918091;29;20047;-85
2023/10/16 04:03:46;;;;;;;0.10;0.10;;;;;;;;;;4902498;29;20051;-85
2023/10/16 04:06:12;;;;;;;0.10;0.10;;;;;;;;;;4903689;29;20136;-85
2023/10/16 04:08:38;;;;;;;0.10;0.10;;;;;;;;;;4918142;29;20052;-84
2023/10/16 04:11:07;;;;;;;0.10;0.10;;;;;;;;;;4902688;29;20062;-85
2023/10/16 04:13:34;;;;;;;0.10;0.10;;;;;;;;;;4902731;29;20458;-85
2023/10/16 04:18:30;;;;;;;0.10;0.10;;;;;;;;;;4917969;29;20101;-85
2023/10/16 04:21:10;;;;;;;0.10;0.10;;;;;;;;;;4918142;29;20059;-85
2023/10/16 04:31:45;;;;;;;0.10;0.10;;;;;;;;;;4917920;29;20106;-84
2023/10/16 04:45:38;;;;;;;0.10;0.10;;;;;;;;;;4920402;29;20066;-85
2023/10/16 04:50:30;;;;;;;0.10;0.10;;;;;;;;;;4934941;29;20055;-85
2023/10/16 04:55:52;;;;;;;0.10;0.10;;;;;;;;;;4917492;29;20578;-85
2023/10/16 05:01:19;;;;;;;0.10;0.10;;;;;;;;;;4919184;29;20055;-85
2023/10/16 05:08:48;;;;;;;0.10;0.10;;;;;;;;;;4917486;29;20055;-85
2023/10/16 05:11:36;;;;;;;0.10;0.10;;;;;;;;;;4934751;29;20047;-84
2023/10/16 05:17:18;;;;;;;0.10;0.10;;;;;;;;;;4921711;29;20403;-85
2023/10/16 05:19:46;;;;;;;0.10;0.10;;;;;;;;;;4921245;29;20470;-84
2023/10/16 06:14:15;;;;;;;0.10;0.10;;;;;;;;;;4922910;29;20397;-84
2023/10/16 06:16:41;;;;;;;0.10;0.10;;;;;;;;;;4920362;29;20104;-84
2023/10/16 06:19:19;;;;;;;0.10;0.10;;;;;;;;;;4920157;29;20048;-84
2023/10/16 06:21:46;;;;;;;0.10;0.10;;;;;;;;;;4920150;29;20044;-84
2023/10/16 06:24:32;;;;;;;0.10;0.10;;;;;;;;;;4920111;29;20054;-84
2023/10/16 06:27:08;;;;;;;0.10;0.10;;;;;;;;;;4919813;29;20048;-84
2023/10/16 06:29:35;;;;;;;0.10;0.10;;;;;;;;;;4920403;29;20039;-84
2023/10/16 06:32:06;;;;;;;0.10;0.10;;;;;;;;;;4904246;29;20494;-84
2023/10/16 06:34:33;;;;;;;0.10;0.10;;;;;;;;;;4919969;29;20048;-84
2023/10/16 06:37:05;;;;;;;0.10;0.10;;;;;;;;;;4920061;29;20056;-84
2023/10/16 06:39:35;;;;;;;0.10;0.10;;;;;;;;;;4919747;29;20047;-84
2023/10/16 06:42:04;;;;;;;0.10;0.10;;;;;;;;;;4919973;29;20114;-84
2023/10/16 06:44:34;;;;;;;0.10;0.10;;;;;;;;;;4936658;29;20044;-84
2023/10/16 06:47:00;;;;;;;0.10;0.10;;;;;;;;;;4920379;29;20055;-84
2023/10/16 06:49:35;;;;;;;0.10;0.10;;;;;;;;;;4936687;29;20095;-84
2023/10/16 06:52:05;;;;;;;0.10;0.10;;;;;;;;;;4919779;29;20047;-84
2023/10/16 06:54:40;;;;;;;0.10;0.10;;;;;;;;;;4919532;29;20102;-86
2023/10/16 06:57:12;;;;;;;0.10;0.10;;;;;;;;;;4919895;29;20111;-87
2023/10/16 06:59:41;;;;;;;0.10;0.10;;;;;;;;;;4920671;29;20101;-86
2023/10/16 07:02:19;;;;;;;0.10;0.10;;;;;;;;;;4904684;29;20089;-86
2023/10/16 07:04:46;;;;;;;0.10;0.10;;;;;;;;;;4905618;29;20067;-86
2023/10/16 07:07:16;;;;;;;0.10;0.10;;;;;;;;;;4903858;29;20155;-85
2023/10/16 07:09:47;;;;;;;0.10;0.10;;;;;;;;;;4920099;29;20048;-85
2023/10/16 07:12:13;;;;;;;0.10;0.10;;;;;;;;;;4919385;29;20040;-86
2023/10/16 07:14:39;;;;;;;0.10;0.10;;;;;;;;;;4936308;29;20106;-85
2023/10/16 07:17:05;;;;;;;0.10;0.10;;;;;;;;;;4903640;29;20450;-87
2023/10/16 07:19:31;;;;;;;0.10;0.10;;;;;;;;;;4919057;29;20134;-85
2023/10/16 07:22:00;;;;;;;0.10;0.10;;;;;;;;;;4919730;29;20051;-85
2023/10/16 07:24:26;;;;;;;0.10;0.10;;;;;;;;;;4919641;29;20266;-86
2023/10/16 07:26:52;;;;;;;0.10;0.10;;;;;;;;;;4918807;29;20059;-86
2023/10/16 07:29:21;;;;;;;0.10;0.10;;;;;;;;;;4918937;29;20071;-85
2023/10/16 07:31:49;;;;;;;0.10;0.10;;;;;;;;;;4918713;29;20040;-84
2023/10/16 07:34:15;;;;;;;0.10;0.10;;;;;;;;;;4903384;29;20103;-84
2023/10/16 07:36:45;;;;;;;0.10;0.10;;;;;;;;;;4918843;29;20048;-84
2023/10/16 07:39:11;;;;;;;0.10;0.10;;;;;;;;;;4903389;29;20052;-84
2023/10/16 07:41:37;;;;;;;0.10;0.10;;;;;;;;;;4919059;29;20047;-86
2023/10/16 07:44:04;;;;;;;0.10;0.10;;;;;;;;;;4935637;29;20039;-85
2023/10/16 07:46:36;;;;;;;0.10;0.10;;;;;;;;;;4935995;29;20098;-87
2023/10/16 07:49:09;;;;;;;0.10;0.10;;;;;;;;;;4919011;29;20106;-88
2023/10/16 07:51:35;;;;;;;0.10;0.10;;;;;;;;;;4918813;29;20069;-87
2023/10/16 07:54:06;;;;;;;0.10;0.10;;;;;;;;;;4935333;29;20047;-88
2023/10/16 07:56:33;;;;;;;0.10;0.10;;;;;;;;;;4903736;29;20106;-88
2023/10/16 07:59:09;;;;;;;0.10;0.10;;;;;;;;;;4902633;29;20113;-87
2023/10/16 08:01:57;;;;;;;0.10;0.10;;;;;;;;;;4902762;29;20043;-87
2023/10/16 08:06:52;;;;;;;0.10;0.10;;;;;;;;;;4902736;29;20323;-87
2023/10/16 08:14:54;;;;;;;0.10;0.10;;;;;;;;;;4879400;29;20538;-86
2023/10/16 08:17:26;;;;;;;0.10;0.10;;;;;;;;;;4895455;29;20063;-87
2023/10/16 08:19:52;;;;;;;;;;;;;;;;;;4918564;29;20039;-86
2023/10/16 08:22:18;;;;;;;0.10;0.10;;;;;;;;;;4918195;29;20288;-86
2023/10/16 08:24:57;;;;;;;0.10;0.10;;;;;;;;;;4902200;29;20055;-86
2023/10/16 08:27:47;;;;;;;0.10;0.10;;;;;;;;;;4903878;29;20474;-86
2023/10/16 08:33:09;;;;;;;0.10;0.10;;;;;;;;;;4935053;29;20501;-86
2023/10/16 08:35:38;;;;;;;0.10;0.10;;;;;;;;;;4917858;29;20043;-86
2023/10/16 08:38:25;;;;;;;0.10;0.10;;;;;;;;;;4902883;29;20450;-87
2023/10/16 08:40:58;;;;;;;0.10;0.10;;;;;;;;;;4902532;29;20106;-89
2023/10/16 08:43:39;;;;;;;;;;;;;;;;;;4903132;29;20075;-88
2023/10/16 08:46:10;;;;;;;0.10;0.10;;;;;;;;;;4918051;29;20387;-88
2023/10/16 08:48:36;;;;;;;0.10;0.10;;;;;;;;;;4902104;29;20083;-89
2023/10/16 08:51:08;;;;;;;0.10;0.10;;;;;;;;;;4918737;29;20524;-88
2023/10/16 08:53:34;;;;;;;0.10;0.10;;;;;;;;;;4921894;29;20201;-92
2023/10/16 08:56:09;;;;;;;0.10;0.10;;;;;;;;;;4922579;29;20043;-88
2023/10/16 08:58:41;;;;;;;0.10;0.10;;;;;;;;;;4906841;29;20082;-88
2023/10/16 09:01:07;;;;;;;0.10;0.10;;;;;;;;;;4922166;29;20409;-88
2023/10/16 09:03:38;;;;;;;0.10;0.10;;;;;;;;;;4921608;29;20478;-89
2023/10/16 09:06:04;;;;;;;0.10;0.10;;;;;;;;;;4906263;29;20067;-88
2023/10/16 09:08:33;;;;;;;0.20;0.20;;;;;;;;;;4905882;29;20413;-89
2023/10/16 09:11:10;;;;;;;0.10;0.10;;;;;;;;;;4921564;29;20493;-87
2023/10/16 09:13:36;;;;;;;0.10;0.10;;;;;;;;;;4921468;29;20124;-88
2023/10/16 09:16:11;;;;;;;0.10;0.10;;;;;;;;;;4905449;29;20126;-87
2023/10/16 09:18:38;;;;;;;0.10;0.10;;;;;;;;;;4921352;29;20075;-87
2023/10/16 09:21:13;;;;;;;0.10;0.10;;;;;;;;;;4905735;29;20067;-87
2023/10/16 09:23:40;;;;;;;0.10;0.10;;;;;;;;;;4922527;29;20055;-87
2023/10/16 09:26:07;;;;;;;0.10;0.10;;;;;;;;;;4904024;29;20461;-86
2023/10/16 09:28:33;;;;;;;0.10;0.10;;;;;;;;;;4919340;29;20114;-86
2023/10/16 09:31:01;;;;;;;0.10;0.10;;;;;;;;;;4905086;29;20043;-86
2023/10/16 09:33:27;;;;;;;0.10;0.10;;;;;;;;;;4920769;29;20504;-86
2023/10/16 09:36:00;;;;;;;0.10;0.10;;;;;;;;;;4904954;29;20541;-86
2023/10/16 09:38:32;;;;;;;0.10;0.10;;;;;;;;;;4904936;29;20092;-87
2023/10/16 09:43:56;;;;;;;0.10;0.10;;;;;;;;;;4907980;29;20249;-87
2023/10/16 09:49:13;;;;;;;0.10;0.10;;;;;;;;;;4937555;29;20119;-87
2023/10/16 09:51:39;;;;;;;0.10;0.10;;;;;;;;;;4920387;29;20480;-87
2023/10/16 09:54:09;;;;;;;0.10;0.10;;;;;;;;;;4904804;29;20061;-87
2023/10/16 09:56:38;;;;;;;0.10;0.10;;;;;;;;;;4920314;29;20039;-87
2023/10/16 09:59:06;;;;;;;0.10;0.10;;;;;;;;;;4920446;29;20054;-88
2023/10/16 10:01:33;;;;;;;0.10;0.10;;;;;;;;;;4904521;29;20043;-87
2023/10/16 10:03:59;;;;;;;0.10;0.10;;;;;;;;;;4904700;29;20052;-87
2023/10/16 10:06:32;;;;;;;0.10;0.10;;;;;;;;;;4904238;29;20060;-89
2023/10/16 10:12:07;;;;;;;0.10;0.10;;;;;;;;;;4918452;29;20044;-90
2023/10/16 10:14:39;;;;;;;0.10;0.10;;;;;;;;;;4907230;29;20059;-93
2023/10/16 10:17:09;;;;;;;0.10;0.10;;;;;;;;;;4917738;29;20402;-89
2023/10/16 10:19:39;;;;;;;0.10;0.10;;;;;;;;;;4917426;29;20134;-89
2023/10/16 10:22:06;;;;;;;0.10;0.10;;;;;;;;;;4917934;29;20486;-87
2023/10/16 10:24:39;;;;;;;0.10;0.10;;;;;;;;;;4885761;29;20132;-88
2023/10/16 10:27:11;;;;;;;0.10;0.10;;;;;;;;;;4901633;29;20051;-87
2023/10/16 10:29:37;;;;;;;0.10;0.10;;;;;;;;;;4886082;29;20565;-87
2023/10/16 10:32:07;;;;;;;0.10;0.10;;;;;;;;;;4917172;29;20071;-86
2023/10/16 10:34:33;;;;;;;0.10;0.10;;;;;;;;;;4917060;29;20051;-86
2023/10/16 10:36:59;;;;;;;0.13;0.13;;;;;;;;;;4918177;29;20040;-86
2023/10/16 10:41:54;;;;;;;0.13;0.13;;;;;;;;;;4901300;29;20052;-87
2023/10/16 10:44:29;;;;;;;0.10;0.10;;;;;;;;;;4917320;29;20550;-87
2023/10/16 10:46:55;;;;;;;0.10;0.10;;;;;;;;;;4916776;29;20036;-87
2023/10/16 10:49:30;;;;;;;0.10;0.10;;;;;;;;;;4900895;29;20486;-88
2023/10/16 10:51:56;;;;;;;0.10;0.10;;;;;;;;;;4905151;29;20565;-86
2023/10/16 10:54:25;;;;;;;0.10;0.10;;;;;;;;;;4912903;29;20113;-87
2023/10/16 10:56:53;;;;;;;0.10;0.10;;;;;;;;;;4914255;29;20099;-87
2023/10/16 10:59:39;;;;;;;0.10;0.10;;;;;;;;;;4902188;29;20074;-86
2023/10/16 11:02:20;;;;;;;0.10;0.10;;;;;;;;;;4935999;29;20071;-86
2023/10/16 11:04:59;;;;;;;0.20;0.20;;;;;;;;;;4919223;29;20109;-87
2023/10/16 11:07:28;;;;;;;0.10;0.10;;;;;;;;;;4918667;29;20136;-86
2023/10/16 11:09:56;;;;;;;0.10;0.10;;;;;;;;;;4903295;29;20044;-87
2023/10/16 11:12:25;;;;;;;0.10;0.10;;;;;;;;;;4915907;29;20176;-87
2023/10/16 11:14:53;;;;;;;0.10;0.10;;;;;;;;;;4899783;29;20044;-87
2023/10/16 11:17:32;;;;;;;0.15;0.15;;;;;;;;;;4908714;29;20058;-86
2023/10/16 11:19:59;;;;;;;0.10;0.10;;;;;;;;;;4903465;29;20095;-87
2023/10/16 11:22:27;;;;;;;0.10;0.10;;;;;;;;;;4902965;29;20496;-86
2023/10/16 11:24:53;;;;;;;0.10;0.10;;;;;;;;;;4918966;29;20047;-86
2023/10/16 11:27:19;;;;;;;0.10;0.10;;;;;;;;;;4918958;29;20394;-86
2023/10/16 11:29:46;;;;;;;0.10;0.10;;;;;;;;;;4918424;29;20043;-86
2023/10/16 11:32:15;;;;;;;0.10;0.10;;;;;;;;;;4918401;29;20043;-86
2023/10/16 11:34:50;;;;;;;0.10;0.10;;;;;;;;;;4935155;29;20051;-86
2023/10/16 11:37:18;;;;;;;0.10;0.10;;;;;;;;;;4918250;29;20135;-86
2023/10/16 11:39:47;;;;;;;0.10;0.10;;;;;;;;;;4918245;29;20062;-86
2023/10/16 11:42:14;;;;;;;0.10;0.10;;;;;;;;;;4918281;29;20047;-85
2023/10/16 11:44:40;;;;;;;0.10;0.10;;;;;;;;;;4918497;29;20040;-85
2023/10/16 11:47:09;;;;;;;0.10;0.10;;;;;;;;;;4917992;29;20408;-85
2023/10/16 11:49:38;;;;;;;0.10;0.10;;;;;;;;;;4899559;29;20045;-86
2023/10/16 11:52:08;;;;;;;0.10;0.10;;;;;;;;;;4888504;29;20044;-86
2023/10/16 11:54:34;;;;;;;0.13;0.13;;;;;;;;;;4918131;29;20039;-87
2023/10/16 11:57:00;;;;;;;0.10;0.10;;;;;;;;;;4902683;29;20079;-87
2023/10/16 11:59:28;;;;;;;0.10;0.10;;;;;;;;;;4918689;29;20429;-86
2023/10/16 12:01:59;;;;;;;0.10;0.10;;;;;;;;;;4903030;29;20069;-86
2023/10/16 12:04:26;;;;;;;0.10;0.10;;;;;;;;;;4902904;29;20054;-87
2023/10/16 12:06:52;;;;;;;0.20;0.20;;;;;;;;;;4902811;29;20052;-87
2023/10/16 12:09:21;;;;;;;0.10;0.10;;;;;;;;;;4902714;29;20127;-87
2023/10/16 12:11:51;;;;;;;0.10;0.10;;;;;;;;;;4902767;29;20046;-87
2023/10/16 12:14:17;;;;;;;0.10;0.10;;;;;;;;;;4918318;29;20122;-86
2023/10/16 12:16:45;;;;;;;0.10;0.10;;;;;;;;;;4918446;29;20078;-87
2023/10/16 12:19:12;;;;;;;0.10;0.10;;;;;;;;;;4903062;29;20052;-88
2023/10/16 12:21:38;;;;;;;0.10;0.10;;;;;;;;;;4918227;29;20047;-86
2023/10/16 12:24:04;;;;;;;0.10;0.10;;;;;;;;;;4917865;29;20058;-86
2023/10/16 12:26:31;;;;;;;0.10;0.10;;;;;;;;;;4918147;29;20043;-86
2023/10/16 12:28:59;;;;;;;0.10;0.10;;;;;;;;;;4902068;29;20044;-86
2023/10/16 12:31:26;;;;;;;0.10;0.10;;;;;;;;;;4918073;29;20043;-87
2023/10/16 12:33:53;;;;;;;0.10;0.10;;;;;;;;;;4917908;29;20048;-86
2023/10/16 12:36:19;;;;;;;0.10;0.10;;;;;;;;;;4918054;29;20040;-87
2023/10/16 12:38:45;;;;;;;0.10;0.10;;;;;;;;;;4918069;29;20070;-87
2023/10/16 12:41:12;;;;;;;0.10;0.10;;;;;;;;;;4917992;29;20052;-87
2023/10/16 12:43:39;;;;;;;0.10;0.10;;;;;;;;;;4902329;29;20096;-87
2023/10/16 12:46:07;;;;;;;0.10;0.10;;;;;;;;;;4917682;29;20149;-87
2023/10/16 12:48:33;;;;;;;0.10;0.10;;;;;;;;;;4917642;29;20048;-87
2023/10/16 12:51:07;;;;;;;0.10;0.10;;;;;;;;;;4902404;29;20400;-88
2023/10/16 12:53:33;;;;;;;0.10;0.10;;;;;;;;;;4919034;29;20094;-87
2023/10/16 12:55:59;;;;;;;0.10;0.10;;;;;;;;;;4917668;29;20039;-87
2023/10/16 12:58:27;;;;;;;0.20;0.20;;;;;;;;;;4934653;29;20138;-87
2023/10/16 13:00:53;;;;;;;0.10;0.10;;;;;;;;;;4917703;29;20488;-87
2023/10/16 13:03:20;;;;;;;0.10;0.10;;;;;;;;;;4917622;29;20051;-86
2023/10/16 13:05:48;;;;;;;0.10;0.10;;;;;;;;;;4917401;29;20657;-87
2023/10/16 13:08:16;;;;;;;0.10;0.10;;;;;;;;;;4901557;29;20052;-86
2023/10/16 13:10:43;;;;;;;0.10;0.10;;;;;;;;;;4917424;29;20090;-86
2023/10/16 13:13:09;;;;;;;0.22;0.22;;;;;;;;;;4917784;29;20051;-87
2023/10/16 13:15:36;;;;;;;0.10;0.10;;;;;;;;;;4917712;29;20405;-87
2023/10/16 13:18:02;;;;;;;0.20;0.20;;;;;;;;;;4917531;29;20043;-87
2023/10/16 13:20:28;;;;;;;0.10;0.10;;;;;;;;;;4917414;29;20044;-87
2023/10/16 13:22:54;;;;;;;0.10;0.10;;;;;;;;;;4917603;29;20065;-87
2023/10/16 13:25:39;;;;;;;0.10;0.10;;;;;;;;;;4901589;29;20131;-87
2023/10/16 13:28:07;;;;;;;0.10;0.10;;;;;;;;;;4901621;29;20039;-87
2023/10/16 13:30:33;;;;;;;0.10;0.10;;;;;;;;;;4901990;29;20044;-87
2023/10/16 13:33:09;;;;;;;0.10;0.10;;;;;;;;;;4917131;29;20048;-87
2023/10/16 13:35:38;;;;;;;0.10;0.10;;;;;;;;;;4902722;29;20043;-88
2023/10/16 13:38:04;;;;;;;0.10;0.10;;;;;;;;;;4919554;29;20043;-88
2023/10/16 13:40:32;;;;;;;0.10;0.10;;;;;;;;;;4904894;29;20424;-88
2023/10/16 13:43:02;;;;;;;0.10;0.10;;;;;;;;;;4921055;29;20461;-87
2023/10/16 13:45:28;;;;;;;0.10;0.10;;;;;;;;;;4905509;29;20560;-88
2023/10/16 13:47:55;;;;;;;0.10;0.10;;;;;;;;;;4905093;29;20165;-90
2023/10/16 13:50:28;;;;;;;0.10;0.10;;;;;;;;;;4905127;29;20050;-88
2023/10/16 13:52:54;;;;;;;0.10;0.10;;;;;;;;;;4920933;29;20396;-87
2023/10/16 13:55:22;;;;;;;0.20;0.20;;;;;;;;;;4920665;29;20363;-88
2023/10/16 13:57:48;;;;;;;0.10;0.10;;;;;;;;;;4920701;29;20154;-87
2023/10/16 14:00:31;;;;;;;0.10;0.10;;;;;;;;;;4920521;29;20051;-87
2023/10/16 14:03:10;;;;;;;0.10;0.10;;;;;;;;;;4907256;29;20461;-87
2023/10/16 14:05:47;;;;;;;0.10;0.10;;;;;;;;;;4905893;29;20150;-87
2023/10/16 14:08:17;;;;;;;0.10;0.10;;;;;;;;;;4905819;29;20055;-87
2023/10/16 14:10:47;;;;;;;0.10;0.10;;;;;;;;;;4920415;29;20126;-89
2023/10/16 14:13:21;;;;;;;0.10;0.10;;;;;;;;;;4920611;29;20039;-89
2023/10/16 14:15:47;;;;;;;0.10;0.10;;;;;;;;;;4903716;29;20043;-88
2023/10/16 14:18:15;;;;;;;0.10;0.10;;;;;;;;;;4904915;29;20536;-88
2023/10/16 14:20:45;;;;;;;0.10;0.10;;;;;;;;;;4891099;29;20489;-89
2023/10/16 14:23:18;;;;;;;0.10;0.10;;;;;;;;;;4905434;29;20054;-88
2023/10/16 14:25:47;;;;;;;0.10;0.10;;;;;;;;;;4900511;29;20095;-88
2023/10/16 14:28:33;;;;;;;0.10;0.10;;;;;;;;;;4885890;29;20108;-88
2023/10/16 14:31:04;;;;;;;0.10;0.10;;;;;;;;;;4900792;29;20198;-89
2023/10/16 14:33:31;;;;;;;0.10;0.10;;;;;;;;;;4901147;29;20040;-89
2023/10/16 14:36:00;;;;;;;0.10;0.10;;;;;;;;;;4885747;29;20397;-90
2023/10/16 14:38:26;;;;;;;0.10;0.10;;;;;;;;;;4885827;29;20054;-90
2023/10/16 14:40:55;;;;;;;0.10;0.10;;;;;;;;;;4869856;29;20076;-89
2023/10/16 14:43:24;;;;;;;0.10;0.10;;;;;;;;;;4900754;29;20040;-89
2023/10/16 14:45:54;;;;;;;0.10;0.10;;;;;;;;;;4869792;29;20044;-90
2023/10/16 14:48:22;;;;;;;0.10;0.10;;;;;;;;;;4900642;29;20112;-90
2023/10/16 14:50:48;;;;;;;0.13;0.13;;;;;;;;;;4885459;29;20126;-89
2023/10/16 14:53:19;;;;;;;0.10;0.10;;;;;;;;;;4885137;29;20397;-89
2023/10/16 14:55:47;;;;;;;0.10;0.10;;;;;;;;;;4901888;29;20043;-89
2023/10/16 14:58:13;;;;;;;0.10;0.10;;;;;;;;;;4885101;29;20048;-89
2023/10/16 15:00:44;;;;;;;0.10;0.10;;;;;;;;;;4884988;29;20044;-89
2023/10/16 15:03:10;;;;;;;0.10;0.10;;;;;;;;;;4901444;29;20394;-89
2023/10/16 15:05:39;;;;;;;0.10;0.10;;;;;;;;;;4884800;29;20135;-89
2023/10/16 15:08:06;;;;;;;0.10;0.10;;;;;;;;;;4869797;29;20406;-89
2023/10/16 15:10:32;;;;;;;0.10;0.10;;;;;;;;;;4885075;29;20051;-89
2023/10/16 15:12:59;;;;;;;0.10;0.10;;;;;;;;;;4900783;29;20127;-89
2023/10/16 15:15:25;;;;;;;0.10;0.10;;;;;;;;;;4884542;29;20040;-90
2023/10/16 15:17:54;;;;;;;0.10;0.10;;;;;;;;;;4884894;29;20091;-89
2023/10/16 15:20:20;;;;;;;0.10;0.10;;;;;;;;;;4884553;29;20052;-90
2023/10/16 15:22:46;;;;;;;0.10;0.10;;;;;;;;;;4900194;29;20044;-89
2023/10/16 15:25:13;;;;;;;0.10;0.10;;;;;;;;;;4900053;29;20123;-90
2023/10/16 15:27:43;;;;;;;0.10;0.10;;;;;;;;;;4869110;29;20052;-89
2023/10/16 15:30:10;;;;;;;0.10;0.10;;;;;;;;;;4917066;29;20059;-89
2023/10/16 15:32:39;;;;;;;0.10;0.10;;;;;;;;;;4884296;29;20071;-90
2023/10/16 15:35:08;;;;;;;0.20;0.20;;;;;;;;;;4884118;29;20040;-90
2023/10/16 15:37:40;;;;;;;0.10;0.10;;;;;;;;;;4884378;29;20043;-89
2023/10/16 15:40:06;;;;;;;0.10;0.10;;;;;;;;;;4869188;29;20063;-89
2023/10/16 15:42:32;;;;;;;0.10;0.10;;;;;;;;;;4884442;29;20044;-89
2023/10/16 15:45:00;;;;;;;0.10;0.10;;;;;;;;;;4884246;29;20099;-89
2023/10/16 15:47:28;;;;;;;0.10;0.10;;;;;;;;;;4884145;29;20082;-88
2023/10/16 15:49:54;;;;;;;0.10;0.10;;;;;;;;;;4884000;29;20079;-89
2023/10/16 15:52:21;;;;;;;0.10;0.10;;;;;;;;;;4884354;29;20044;-89
2023/10/16 15:54:48;;;;;;;0.10;0.10;;;;;;;;;;4883856;29;20486;-90
2023/10/16 15:57:14;;;;;;;0.10;0.10;;;;;;;;;;4868833;29;20051;-89
2023/10/16 15:59:40;;;;;;;0.10;0.10;;;;;;;;;;4883602;29;20100;-90
2023/10/16 16:02:06;;;;;;;0.10;0.10;;;;;;;;;;4883901;29;20048;-89
2023/10/16 16:04:32;;;;;;;0.10;0.10;;;;;;;;;;4899353;29;20438;-90
2023/10/16 16:07:02;;;;;;;0.10;0.10;;;;;;;;;;4899363;29;20505;-87
2023/10/16 16:09:29;;;;;;;0.10;0.10;;;;;;;;;;4868762;29;20122;-87
2023/10/16 16:11:56;;;;;;;0.10;0.10;;;;;;;;;;4899633;29;20478;-88
2023/10/16 16:14:22;;;;;;;0.10;0.10;;;;;;;;;;4883973;29;20180;-88
2023/10/16 16:16:51;;;;;;;0.10;0.10;;;;;;;;;;4899770;29;20131;-88
2023/10/16 16:19:19;;;;;;;0.10;0.10;;;;;;;;;;4874310;29;20044;-88
2023/10/16 16:21:45;;;;;;;0.20;0.20;;;;;;;;;;4891323;29;20404;-89
2023/10/16 16:24:14;;;;;;;0.10;0.10;;;;;;;;;;4918051;29;20051;-86
2023/10/16 16:26:41;;;;;;;0.10;0.10;;;;;;;;;;4917914;29;20497;-87
2023/10/16 16:29:08;;;;;;;0.10;0.10;;;;;;;;;;4902362;29;20047;-86
2023/10/16 16:31:34;;;;;;;0.10;0.10;;;;;;;;;;4902399;29;20098;-90
2023/10/16 16:34:00;;;;;;;0.10;0.10;;;;;;;;;;4902361;29;20486;-87
2023/10/16 16:36:28;;;;;;;0.10;0.10;;;;;;;;;;4917681;29;20126;-88
2023/10/16 16:38:55;;;;;;;0.10;0.10;;;;;;;;;;4902585;29;20044;-88
2023/10/16 16:41:23;;;;;;;0.10;0.10;;;;;;;;;;4902788;29;20048;-86
2023/10/16 16:43:51;;;;;;;0.10;0.10;;;;;;;;;;4901882;29;20095;-84
2023/10/16 16:46:20;;;;;;;0.10;0.10;;;;;;;;;;4902115;29;20098;-84
2023/10/16 16:48:46;;;;;;;0.43;0.22;;;;;;;;;;4911703;29;20408;-84